sensor_id;sensor_type;location;lat;lon;timestamp;P1;durP1;ratioP1;P2;durP2;ratioP2
41059;SDS011;26811;53.160;8.202;2024-01-30T00:03:29;45.33;;;22.13;;
41059;SDS011;26811;53.160;8.202;2024-01-30T00:08:30;44.05;;;22.38;;
41059;SDS011;26811;53.160;8.202;2024-01-30T00:13:30;38.85;;;21.88;;
41059;SDS011;26811;53.160;8.202;2024-01-30T00:18:31;37.85;;;21.98;;
41059;SDS011;26811;53.160;8.202;2024-01-30T00:23:31;42.72;;;21.73;;
41059;SDS011;26811;53.160;8.202;2024-01-30T00:28:32;39.78;;;22.15;;
41059;SDS011;26811;53.160;8.202;2024-01-30T00:33:32;44.63;;;23.77;;
41059;SDS011;26811;53.160;8.202;2024-01-30T00:38:33;43.70;;;22.23;;
41059;SDS011;26811;53.160;8.202;2024-01-30T00:43:33;44.35;;;23.55;;
41059;SDS011;26811;53.160;8.202;2024-01-30T00:48:34;45.30;;;22.30;;
41059;SDS011;26811;53.160;8.202;2024-01-30T00:53:34;44.00;;;22.67;;
41059;SDS011;26811;53.160;8.202;2024-01-30T00:58:35;39.92;;;23.08;;
41059;SDS011;26811;53.160;8.202;2024-01-30T01:03:35;41.88;;;22.45;;
41059;SDS011;26811;53.160;8.202;2024-01-30T01:08:36;42.17;;;22.70;;
41059;SDS011;26811;53.160;8.202;2024-01-30T01:13:36;45.10;;;22.60;;
41059;SDS011;26811;53.160;8.202;2024-01-30T01:18:37;39.45;;;22.13;;
41059;SDS011;26811;53.160;8.202;2024-01-30T01:23:37;43.22;;;22.08;;
41059;SDS011;26811;53.160;8.202;2024-01-30T01:28:41;42.08;;;21.90;;
41059;SDS011;26811;53.160;8.202;2024-01-30T01:33:42;41.67;;;21.13;;
41059;SDS011;26811;53.160;8.202;2024-01-30T01:38:43;38.22;;;22.25;;
41059;SDS011;26811;53.160;8.202;2024-01-30T01:43:43;42.92;;;22.58;;
41059;SDS011;26811;53.160;8.202;2024-01-30T01:48:43;43.17;;;22.88;;
41059;SDS011;26811;53.160;8.202;2024-01-30T01:53:45;37.90;;;21.80;;
41059;SDS011;26811;53.160;8.202;2024-01-30T01:58:45;41.53;;;21.58;;
41059;SDS011;26811;53.160;8.202;2024-01-30T02:03:47;40.58;;;21.98;;
41059;SDS011;26811;53.160;8.202;2024-01-30T02:08:48;38.53;;;22.05;;
41059;SDS011;26811;53.160;8.202;2024-01-30T02:13:48;41.20;;;22.42;;
41059;SDS011;26811;53.160;8.202;2024-01-30T02:18:50;47.78;;;23.92;;
41059;SDS011;26811;53.160;8.202;2024-01-30T02:23:50;43.03;;;22.50;;
41059;SDS011;26811;53.160;8.202;2024-01-30T02:28:52;43.15;;;21.65;;
41059;SDS011;26811;53.160;8.202;2024-01-30T02:33:52;40.22;;;22.65;;
41059;SDS011;26811;53.160;8.202;2024-01-30T02:38:53;41.63;;;22.83;;
41059;SDS011;26811;53.160;8.202;2024-01-30T02:43:53;40.53;;;23.70;;
41059;SDS011;26811;53.160;8.202;2024-01-30T02:48:54;38.92;;;22.60;;
41059;SDS011;26811;53.160;8.202;2024-01-30T02:53:54;40.20;;;22.48;;
41059;SDS011;26811;53.160;8.202;2024-01-30T02:58:55;43.60;;;21.95;;
41059;SDS011;26811;53.160;8.202;2024-01-30T03:03:56;44.15;;;22.63;;
41059;SDS011;26811;53.160;8.202;2024-01-30T03:08:56;40.85;;;22.13;;
41059;SDS011;26811;53.160;8.202;2024-01-30T03:13:57;42.75;;;23.08;;
41059;SDS011;26811;53.160;8.202;2024-01-30T03:18:57;45.30;;;23.13;;
41059;SDS011;26811;53.160;8.202;2024-01-30T03:23:58;43.40;;;22.58;;
41059;SDS011;26811;53.160;8.202;2024-01-30T03:28:59;43.38;;;23.23;;
41059;SDS011;26811;53.160;8.202;2024-01-30T03:34:00;42.92;;;22.98;;
41059;SDS011;26811;53.160;8.202;2024-01-30T03:39:01;42.47;;;22.95;;
41059;SDS011;26811;53.160;8.202;2024-01-30T03:44:02;41.33;;;23.13;;
41059;SDS011;26811;53.160;8.202;2024-01-30T03:49:02;38.65;;;22.27;;
41059;SDS011;26811;53.160;8.202;2024-01-30T03:54:03;42.60;;;22.85;;
41059;SDS011;26811;53.160;8.202;2024-01-30T03:59:03;44.15;;;22.45;;
41059;SDS011;26811;53.160;8.202;2024-01-30T04:04:04;46.55;;;23.02;;
41059;SDS011;26811;53.160;8.202;2024-01-30T04:09:05;44.05;;;22.50;;
41059;SDS011;26811;53.160;8.202;2024-01-30T04:14:05;42.25;;;23.30;;
41059;SDS011;26811;53.160;8.202;2024-01-30T04:19:06;39.00;;;23.00;;
41059;SDS011;26811;53.160;8.202;2024-01-30T04:24:06;45.40;;;23.48;;
41059;SDS011;26811;53.160;8.202;2024-01-30T04:29:07;39.85;;;21.25;;
41059;SDS011;26811;53.160;8.202;2024-01-30T04:34:07;47.60;;;24.42;;
41059;SDS011;26811;53.160;8.202;2024-01-30T04:39:08;44.17;;;23.15;;
41059;SDS011;26811;53.160;8.202;2024-01-30T04:44:08;42.05;;;22.33;;
41059;SDS011;26811;53.160;8.202;2024-01-30T04:49:09;45.65;;;23.23;;
41059;SDS011;26811;53.160;8.202;2024-01-30T04:54:09;39.53;;;21.85;;
41059;SDS011;26811;53.160;8.202;2024-01-30T04:59:10;42.78;;;22.05;;
41059;SDS011;26811;53.160;8.202;2024-01-30T05:04:10;43.40;;;22.95;;
41059;SDS011;26811;53.160;8.202;2024-01-30T05:09:11;36.50;;;21.58;;
41059;SDS011;26811;53.160;8.202;2024-01-30T05:14:12;44.53;;;22.13;;
41059;SDS011;26811;53.160;8.202;2024-01-30T05:19:15;44.23;;;22.57;;
41059;SDS011;26811;53.160;8.202;2024-01-30T05:24:15;39.65;;;21.38;;
41059;SDS011;26811;53.160;8.202;2024-01-30T05:29:16;43.00;;;22.67;;
41059;SDS011;26811;53.160;8.202;2024-01-30T05:34:17;40.40;;;21.65;;
41059;SDS011;26811;53.160;8.202;2024-01-30T05:39:17;38.47;;;21.13;;
41059;SDS011;26811;53.160;8.202;2024-01-30T05:44:18;43.97;;;22.08;;
41059;SDS011;26811;53.160;8.202;2024-01-30T05:49:18;37.70;;;21.27;;
41059;SDS011;26811;53.160;8.202;2024-01-30T05:54:19;35.17;;;21.85;;
41059;SDS011;26811;53.160;8.202;2024-01-30T05:59:20;38.80;;;21.10;;
41059;SDS011;26811;53.160;8.202;2024-01-30T06:04:20;36.00;;;21.13;;
41059;SDS011;26811;53.160;8.202;2024-01-30T06:09:21;45.40;;;23.45;;
41059;SDS011;26811;53.160;8.202;2024-01-30T06:14:21;44.10;;;21.15;;
41059;SDS011;26811;53.160;8.202;2024-01-30T06:19:22;39.35;;;22.33;;
41059;SDS011;26811;53.160;8.202;2024-01-30T06:24:22;49.10;;;21.30;;
41059;SDS011;26811;53.160;8.202;2024-01-30T06:29:23;41.25;;;22.05;;
41059;SDS011;26811;53.160;8.202;2024-01-30T06:34:26;41.22;;;22.60;;
41059;SDS011;26811;53.160;8.202;2024-01-30T06:39:27;41.80;;;22.10;;
41059;SDS011;26811;53.160;8.202;2024-01-30T06:44:27;35.20;;;20.38;;
41059;SDS011;26811;53.160;8.202;2024-01-30T06:49:28;49.70;;;21.98;;
41059;SDS011;26811;53.160;8.202;2024-01-30T06:54:28;39.38;;;21.95;;
41059;SDS011;26811;53.160;8.202;2024-01-30T06:59:29;39.20;;;22.20;;
41059;SDS011;26811;53.160;8.202;2024-01-30T07:04:29;38.08;;;22.70;;
41059;SDS011;26811;53.160;8.202;2024-01-30T07:09:31;50.05;;;22.50;;
41059;SDS011;26811;53.160;8.202;2024-01-30T07:14:32;40.25;;;22.55;;
41059;SDS011;26811;53.160;8.202;2024-01-30T07:19:33;37.80;;;21.70;;
41059;SDS011;26811;53.160;8.202;2024-01-30T07:24:34;42.50;;;23.38;;
41059;SDS011;26811;53.160;8.202;2024-01-30T07:29:35;42.55;;;21.90;;
41059;SDS011;26811;53.160;8.202;2024-01-30T07:34:35;41.63;;;22.13;;
41059;SDS011;26811;53.160;8.202;2024-01-30T07:39:36;39.60;;;21.30;;
41059;SDS011;26811;53.160;8.202;2024-01-30T07:44:36;39.05;;;20.42;;
41059;SDS011;26811;53.160;8.202;2024-01-30T07:49:37;44.88;;;20.73;;
41059;SDS011;26811;53.160;8.202;2024-01-30T07:54:37;37.13;;;20.95;;
41059;SDS011;26811;53.160;8.202;2024-01-30T07:59:39;40.95;;;21.17;;
41059;SDS011;26811;53.160;8.202;2024-01-30T08:04:41;38.70;;;20.37;;
41059;SDS011;26811;53.160;8.202;2024-01-30T08:09:42;38.33;;;19.80;;
41059;SDS011;26811;53.160;8.202;2024-01-30T08:14:43;37.20;;;19.00;;
41059;SDS011;26811;53.160;8.202;2024-01-30T08:19:43;35.83;;;20.10;;
41059;SDS011;26811;53.160;8.202;2024-01-30T08:24:44;38.72;;;19.90;;
41059;SDS011;26811;53.160;8.202;2024-01-30T08:29:44;37.40;;;18.73;;
41059;SDS011;26811;53.160;8.202;2024-01-30T08:34:45;34.22;;;18.30;;
41059;SDS011;26811;53.160;8.202;2024-01-30T08:39:45;43.22;;;19.25;;
41059;SDS011;26811;53.160;8.202;2024-01-30T08:44:46;38.85;;;18.58;;
41059;SDS011;26811;53.160;8.202;2024-01-30T08:49:46;35.25;;;18.30;;
41059;SDS011;26811;53.160;8.202;2024-01-30T08:54:47;34.17;;;17.75;;
41059;SDS011;26811;53.160;8.202;2024-01-30T08:59:47;30.20;;;17.92;;
41059;SDS011;26811;53.160;8.202;2024-01-30T09:04:48;33.97;;;17.45;;
41059;SDS011;26811;53.160;8.202;2024-01-30T09:09:49;33.97;;;16.92;;
41059;SDS011;26811;53.160;8.202;2024-01-30T09:14:49;30.13;;;16.40;;
41059;SDS011;26811;53.160;8.202;2024-01-30T09:19:50;32.90;;;16.55;;
41059;SDS011;26811;53.160;8.202;2024-01-30T09:24:50;28.30;;;16.60;;
41059;SDS011;26811;53.160;8.202;2024-01-30T09:29:51;29.55;;;17.13;;
41059;SDS011;26811;53.160;8.202;2024-01-30T09:34:51;29.15;;;16.45;;
41059;SDS011;26811;53.160;8.202;2024-01-30T09:39:52;29.17;;;16.30;;
41059;SDS011;26811;53.160;8.202;2024-01-30T09:44:52;31.20;;;16.40;;
41059;SDS011;26811;53.160;8.202;2024-01-30T09:49:53;29.15;;;15.75;;
41059;SDS011;26811;53.160;8.202;2024-01-30T09:54:56;30.38;;;16.92;;
41059;SDS011;26811;53.160;8.202;2024-01-30T10:00:01;30.83;;;16.13;;
41059;SDS011;26811;53.160;8.202;2024-01-30T10:05:02;28.33;;;15.73;;
41059;SDS011;26811;53.160;8.202;2024-01-30T10:10:05;28.90;;;15.98;;
41059;SDS011;26811;53.160;8.202;2024-01-30T10:15:07;28.83;;;15.63;;
41059;SDS011;26811;53.160;8.202;2024-01-30T10:20:08;38.75;;;16.20;;
41059;SDS011;26811;53.160;8.202;2024-01-30T10:25:09;26.33;;;15.07;;
41059;SDS011;26811;53.160;8.202;2024-01-30T10:30:10;30.10;;;14.75;;
41059;SDS011;26811;53.160;8.202;2024-01-30T10:35:11;26.25;;;15.57;;
41059;SDS011;26811;53.160;8.202;2024-01-30T10:40:12;29.23;;;14.63;;
41059;SDS011;26811;53.160;8.202;2024-01-30T10:45:14;28.23;;;14.50;;
41059;SDS011;26811;53.160;8.202;2024-01-30T10:50:17;27.08;;;14.40;;
41059;SDS011;26811;53.160;8.202;2024-01-30T10:55:18;28.85;;;14.77;;
41059;SDS011;26811;53.160;8.202;2024-01-30T11:00:21;24.23;;;13.75;;
41059;SDS011;26811;53.160;8.202;2024-01-30T11:05:24;24.55;;;13.88;;
41059;SDS011;26811;53.160;8.202;2024-01-30T11:10:27;25.37;;;14.03;;
41059;SDS011;26811;53.160;8.202;2024-01-30T11:15:28;25.30;;;14.32;;
41059;SDS011;26811;53.160;8.202;2024-01-30T11:20:32;27.98;;;14.75;;
41059;SDS011;26811;53.160;8.202;2024-01-30T11:25:32;24.88;;;14.13;;
41059;SDS011;26811;53.160;8.202;2024-01-30T11:30:33;27.35;;;14.85;;
41059;SDS011;26811;53.160;8.202;2024-01-30T11:35:38;26.42;;;14.20;;
41059;SDS011;26811;53.160;8.202;2024-01-30T11:40:40;29.25;;;13.95;;
41059;SDS011;26811;53.160;8.202;2024-01-30T11:45:40;25.52;;;13.25;;
41059;SDS011;26811;53.160;8.202;2024-01-30T11:50:41;25.35;;;13.90;;
41059;SDS011;26811;53.160;8.202;2024-01-30T11:55:49;30.13;;;14.20;;
41059;SDS011;26811;53.160;8.202;2024-01-30T12:00:54;26.38;;;15.75;;
41059;SDS011;26811;53.160;8.202;2024-01-30T12:05:58;28.65;;;13.57;;
41059;SDS011;26811;53.160;8.202;2024-01-30T12:10:59;31.60;;;14.02;;
41059;SDS011;26811;53.160;8.202;2024-01-30T12:16:02;29.40;;;14.37;;
41059;SDS011;26811;53.160;8.202;2024-01-30T12:21:02;26.23;;;14.23;;
41059;SDS011;26811;53.160;8.202;2024-01-30T12:26:03;30.10;;;14.93;;
41059;SDS011;26811;53.160;8.202;2024-01-30T12:31:06;31.42;;;14.75;;
41059;SDS011;26811;53.160;8.202;2024-01-30T12:36:08;29.05;;;14.55;;
41059;SDS011;26811;53.160;8.202;2024-01-30T12:41:09;31.00;;;14.82;;
41059;SDS011;26811;53.160;8.202;2024-01-30T12:46:10;26.10;;;14.88;;
41059;SDS011;26811;53.160;8.202;2024-01-30T12:51:11;28.73;;;14.68;;
41059;SDS011;26811;53.160;8.202;2024-01-30T12:56:12;26.35;;;13.90;;
41059;SDS011;26811;53.160;8.202;2024-01-30T13:01:12;28.48;;;13.90;;
41059;SDS011;26811;53.160;8.202;2024-01-30T13:06:13;31.90;;;14.95;;
41059;SDS011;26811;53.160;8.202;2024-01-30T13:11:13;29.60;;;15.32;;
41059;SDS011;26811;53.160;8.202;2024-01-30T13:16:14;33.20;;;14.00;;
41059;SDS011;26811;53.160;8.202;2024-01-30T13:21:14;29.88;;;15.27;;
41059;SDS011;26811;53.160;8.202;2024-01-30T13:26:15;23.48;;;14.38;;
41059;SDS011;26811;53.160;8.202;2024-01-30T13:31:16;30.67;;;14.57;;
41059;SDS011;26811;53.160;8.202;2024-01-30T13:36:16;29.77;;;14.55;;
41059;SDS011;26811;53.160;8.202;2024-01-30T13:41:17;27.10;;;14.95;;
41059;SDS011;26811;53.160;8.202;2024-01-30T13:46:17;33.78;;;15.55;;
41059;SDS011;26811;53.160;8.202;2024-01-30T13:51:21;30.20;;;14.63;;
41059;SDS011;26811;53.160;8.202;2024-01-30T13:56:22;32.15;;;14.65;;
41059;SDS011;26811;53.160;8.202;2024-01-30T14:01:23;26.58;;;15.05;;
41059;SDS011;26811;53.160;8.202;2024-01-30T14:06:24;25.58;;;14.73;;
41059;SDS011;26811;53.160;8.202;2024-01-30T14:11:24;30.10;;;14.98;;
41059;SDS011;26811;53.160;8.202;2024-01-30T14:16:25;24.35;;;13.25;;
41059;SDS011;26811;53.160;8.202;2024-01-30T14:21:28;29.52;;;14.73;;
41059;SDS011;26811;53.160;8.202;2024-01-30T14:26:29;25.00;;;14.30;;
41059;SDS011;26811;53.160;8.202;2024-01-30T14:31:29;34.40;;;14.32;;
41059;SDS011;26811;53.160;8.202;2024-01-30T14:36:30;25.42;;;14.45;;
41059;SDS011;26811;53.160;8.202;2024-01-30T14:41:32;27.90;;;14.88;;
41059;SDS011;26811;53.160;8.202;2024-01-30T14:46:32;20.77;;;13.50;;
41059;SDS011;26811;53.160;8.202;2024-01-30T14:51:33;29.48;;;14.20;;
41059;SDS011;26811;53.160;8.202;2024-01-30T14:56:34;24.95;;;13.65;;
41059;SDS011;26811;53.160;8.202;2024-01-30T15:01:35;25.85;;;13.70;;
41059;SDS011;26811;53.160;8.202;2024-01-30T15:06:35;29.00;;;14.40;;
41059;SDS011;26811;53.160;8.202;2024-01-30T15:11:36;22.25;;;13.63;;
41059;SDS011;26811;53.160;8.202;2024-01-30T15:16:37;28.33;;;14.43;;
41059;SDS011;26811;53.160;8.202;2024-01-30T15:21:38;26.42;;;13.13;;
41059;SDS011;26811;53.160;8.202;2024-01-30T15:26:38;23.83;;;12.27;;
41059;SDS011;26811;53.160;8.202;2024-01-30T15:31:39;24.90;;;11.98;;
41059;SDS011;26811;53.160;8.202;2024-01-30T15:36:39;18.95;;;10.60;;
41059;SDS011;26811;53.160;8.202;2024-01-30T15:41:40;16.20;;;8.68;;
41059;SDS011;26811;53.160;8.202;2024-01-30T15:46:41;12.85;;;8.00;;
41059;SDS011;26811;53.160;8.202;2024-01-30T15:51:41;19.23;;;7.88;;
41059;SDS011;26811;53.160;8.202;2024-01-30T15:56:42;13.68;;;7.28;;
41059;SDS011;26811;53.160;8.202;2024-01-30T16:01:43;17.58;;;7.00;;
41059;SDS011;26811;53.160;8.202;2024-01-30T16:06:47;14.35;;;6.60;;
41059;SDS011;26811;53.160;8.202;2024-01-30T16:11:49;10.15;;;6.20;;
41059;SDS011;26811;53.160;8.202;2024-01-30T16:16:49;14.55;;;6.90;;
41059;SDS011;26811;53.160;8.202;2024-01-30T16:21:50;13.07;;;5.30;;
41059;SDS011;26811;53.160;8.202;2024-01-30T16:26:50;9.75;;;5.40;;
41059;SDS011;26811;53.160;8.202;2024-01-30T16:31:51;10.18;;;4.82;;
41059;SDS011;26811;53.160;8.202;2024-01-30T16:36:51;9.73;;;4.63;;
41059;SDS011;26811;53.160;8.202;2024-01-30T16:41:52;10.70;;;4.93;;
41059;SDS011;26811;53.160;8.202;2024-01-30T16:46:52;6.38;;;4.70;;
41059;SDS011;26811;53.160;8.202;2024-01-30T16:51:53;5.13;;;4.40;;
41059;SDS011;26811;53.160;8.202;2024-01-30T16:56:53;7.22;;;4.35;;
41059;SDS011;26811;53.160;8.202;2024-01-30T17:01:54;7.60;;;4.40;;
41059;SDS011;26811;53.160;8.202;2024-01-30T17:06:55;8.07;;;4.53;;
41059;SDS011;26811;53.160;8.202;2024-01-30T17:12:02;6.25;;;4.47;;
41059;SDS011;26811;53.160;8.202;2024-01-30T17:17:08;6.03;;;4.20;;
41059;SDS011;26811;53.160;8.202;2024-01-30T17:22:09;7.30;;;4.05;;
41059;SDS011;26811;53.160;8.202;2024-01-30T17:27:18;7.38;;;4.40;;
41059;SDS011;26811;53.160;8.202;2024-01-30T17:32:27;8.45;;;4.43;;
41059;SDS011;26811;53.160;8.202;2024-01-30T17:37:27;13.52;;;5.65;;
41059;SDS011;26811;53.160;8.202;2024-01-30T17:42:28;6.78;;;5.20;;
41059;SDS011;26811;53.160;8.202;2024-01-30T17:47:30;16.35;;;6.57;;
41059;SDS011;26811;53.160;8.202;2024-01-30T17:52:31;27.48;;;9.93;;
41059;SDS011;26811;53.160;8.202;2024-01-30T17:57:40;12.02;;;7.07;;
41059;SDS011;26811;53.160;8.202;2024-01-30T18:02:41;10.13;;;6.32;;
41059;SDS011;26811;53.160;8.202;2024-01-30T18:07:42;12.73;;;7.60;;
41059;SDS011;26811;53.160;8.202;2024-01-30T18:12:44;12.75;;;7.63;;
41059;SDS011;26811;53.160;8.202;2024-01-30T18:17:45;15.43;;;7.95;;
41059;SDS011;26811;53.160;8.202;2024-01-30T18:22:45;18.83;;;7.75;;
41059;SDS011;26811;53.160;8.202;2024-01-30T18:27:46;18.75;;;9.30;;
41059;SDS011;26811;53.160;8.202;2024-01-30T18:32:46;14.10;;;8.27;;
41059;SDS011;26811;53.160;8.202;2024-01-30T18:37:48;13.75;;;8.30;;
41059;SDS011;26811;53.160;8.202;2024-01-30T18:42:49;18.65;;;8.75;;
41059;SDS011;26811;53.160;8.202;2024-01-30T18:47:49;12.23;;;8.23;;
41059;SDS011;26811;53.160;8.202;2024-01-30T18:52:50;14.77;;;9.45;;
41059;SDS011;26811;53.160;8.202;2024-01-30T18:57:51;13.20;;;8.85;;
41059;SDS011;26811;53.160;8.202;2024-01-30T19:02:52;17.80;;;10.23;;
41059;SDS011;26811;53.160;8.202;2024-01-30T19:07:52;16.95;;;10.57;;
41059;SDS011;26811;53.160;8.202;2024-01-30T19:12:53;21.65;;;12.52;;
41059;SDS011;26811;53.160;8.202;2024-01-30T19:17:54;41.05;;;18.48;;
41059;SDS011;26811;53.160;8.202;2024-01-30T19:22:55;11.80;;;8.40;;
41059;SDS011;26811;53.160;8.202;2024-01-30T19:27:57;14.02;;;9.25;;
41059;SDS011;26811;53.160;8.202;2024-01-30T19:32:58;18.80;;;11.35;;
41059;SDS011;26811;53.160;8.202;2024-01-30T19:37:59;12.80;;;7.35;;
41059;SDS011;26811;53.160;8.202;2024-01-30T19:43:00;10.13;;;6.20;;
41059;SDS011;26811;53.160;8.202;2024-01-30T19:48:00;8.85;;;5.50;;
41059;SDS011;26811;53.160;8.202;2024-01-30T19:53:01;7.13;;;4.65;;
41059;SDS011;26811;53.160;8.202;2024-01-30T19:58:01;15.68;;;7.18;;
41059;SDS011;26811;53.160;8.202;2024-01-30T20:03:04;10.70;;;5.45;;
41059;SDS011;26811;53.160;8.202;2024-01-30T20:08:05;14.93;;;5.88;;
41059;SDS011;26811;53.160;8.202;2024-01-30T20:13:06;12.82;;;5.22;;
41059;SDS011;26811;53.160;8.202;2024-01-30T20:18:07;12.02;;;5.82;;
41059;SDS011;26811;53.160;8.202;2024-01-30T20:23:08;25.67;;;9.00;;
41059;SDS011;26811;53.160;8.202;2024-01-30T20:28:08;9.18;;;5.18;;
41059;SDS011;26811;53.160;8.202;2024-01-30T20:33:09;10.32;;;4.35;;
41059;SDS011;26811;53.160;8.202;2024-01-30T20:38:14;10.32;;;4.00;;
41059;SDS011;26811;53.160;8.202;2024-01-30T20:43:15;11.88;;;4.75;;
41059;SDS011;26811;53.160;8.202;2024-01-30T20:48:16;6.72;;;3.22;;
41059;SDS011;26811;53.160;8.202;2024-01-30T20:53:17;15.50;;;8.13;;
41059;SDS011;26811;53.160;8.202;2024-01-30T20:58:18;10.77;;;3.80;;
41059;SDS011;26811;53.160;8.202;2024-01-30T21:03:18;6.90;;;3.70;;
41059;SDS011;26811;53.160;8.202;2024-01-30T21:08:20;11.40;;;3.72;;
41059;SDS011;26811;53.160;8.202;2024-01-30T21:13:21;11.85;;;4.47;;
41059;SDS011;26811;53.160;8.202;2024-01-30T21:18:22;9.80;;;4.10;;
41059;SDS011;26811;53.160;8.202;2024-01-30T21:23:22;18.23;;;4.60;;
41059;SDS011;26811;53.160;8.202;2024-01-30T21:28:23;17.67;;;4.95;;
41059;SDS011;26811;53.160;8.202;2024-01-30T21:33:24;56.42;;;20.00;;
41059;SDS011;26811;53.160;8.202;2024-01-30T21:38:24;8.77;;;4.35;;
41059;SDS011;26811;53.160;8.202;2024-01-30T21:43:26;12.52;;;4.18;;
41059;SDS011;26811;53.160;8.202;2024-01-30T21:48:26;18.45;;;4.45;;
41059;SDS011;26811;53.160;8.202;2024-01-30T21:53:27;14.52;;;3.63;;
41059;SDS011;26811;53.160;8.202;2024-01-30T21:58:27;12.73;;;3.70;;
41059;SDS011;26811;53.160;8.202;2024-01-30T22:03:28;13.40;;;3.53;;
41059;SDS011;26811;53.160;8.202;2024-01-30T22:08:29;16.00;;;3.63;;
41059;SDS011;26811;53.160;8.202;2024-01-30T22:13:29;12.63;;;3.40;;
41059;SDS011;26811;53.160;8.202;2024-01-30T22:18:32;17.02;;;3.80;;
41059;SDS011;26811;53.160;8.202;2024-01-30T22:23:33;11.63;;;4.43;;
41059;SDS011;26811;53.160;8.202;2024-01-30T22:28:34;18.08;;;3.67;;
41059;SDS011;26811;53.160;8.202;2024-01-30T22:33:35;18.80;;;3.10;;
41059;SDS011;26811;53.160;8.202;2024-01-30T22:38:35;13.88;;;3.08;;
41059;SDS011;26811;53.160;8.202;2024-01-30T22:43:36;10.20;;;2.83;;
41059;SDS011;26811;53.160;8.202;2024-01-30T22:48:39;13.80;;;3.30;;
41059;SDS011;26811;53.160;8.202;2024-01-30T22:53:39;11.95;;;3.08;;
41059;SDS011;26811;53.160;8.202;2024-01-30T22:58:40;8.60;;;2.97;;
41059;SDS011;26811;53.160;8.202;2024-01-30T23:03:40;12.02;;;5.57;;
41059;SDS011;26811;53.160;8.202;2024-01-30T23:08:41;11.50;;;4.80;;
41059;SDS011;26811;53.160;8.202;2024-01-30T23:13:41;6.97;;;2.22;;
41059;SDS011;26811;53.160;8.202;2024-01-30T23:18:42;5.32;;;2.35;;
41059;SDS011;26811;53.160;8.202;2024-01-30T23:23:42;5.35;;;2.08;;
41059;SDS011;26811;53.160;8.202;2024-01-30T23:28:43;5.95;;;1.90;;
41059;SDS011;26811;53.160;8.202;2024-01-30T23:33:43;4.78;;;1.98;;
41059;SDS011;26811;53.160;8.202;2024-01-30T23:38:44;8.85;;;2.00;;
41059;SDS011;26811;53.160;8.202;2024-01-30T23:43:44;8.93;;;2.08;;
41059;SDS011;26811;53.160;8.202;2024-01-30T23:48:45;6.22;;;1.80;;
41059;SDS011;26811;53.160;8.202;2024-01-30T23:53:45;4.50;;;1.88;;
41059;SDS011;26811;53.160;8.202;2024-01-30T23:58:46;6.55;;;1.80;;
